Belleair Shores, Florida
Current Conditions -  °F | °C
As of 5:15 AM on Thursday 29 Jan 2015 (Local Time) from KCLW Reporting Station
Clear Clear  
Wind Chill: 40°   Ceiling: Unl
Heat Index: 43°   Visibility: 10mi
Dew Point: 36°   Wind: 5mph
Humidity: 76%   Direction: 70°ENE
Pressure: 30.27"   Gusts: NA
Location:  27.9235°N, 82.8418°W
Report Text: KCLW 291015Z AUTO 07004KT 10SM CLR 06/02 A3027 RMK AO2
Loading
Personal Weather Stations






























Interactive Weather Map New forecast layout! Learn more

10-Day Weather Forecast

Advertisements
Track Severe Weather on mobile